• Join FlightAware (Why Join?)
  • Login
  • US Flag 
06:45PM EDT


 

Airport Tracker/Info


-or-


 

Live Flight TrackerFlight Track Log ✈ BVN8515 ✈ 28-Jun-2013 ✈ KMEM - KATL

Flight Track Log - Related Links

Times and Time Zones

All times are in EDT time to prevent confusion due to time zone crossing. See the BVN8515 flight status page for this flight to view local times or setup timezone preferences in your user account.

Time Position Orientation Groundspeed Altitude Reporting Facility
EDT Latitude Longitude Course Direction KTS MPH feet Rate Location/Type
02:28AM 35.0667 -89.9500 90° East 127 146 700  Level KMEM
02:29AM 35.0667 -89.9167 90° East 127 146 1,700 1,020 Climbing KMEM
02:30AM 35.0500 -89.8667 112° Southeast 121 139 2,800 960 Climbing KMEM
02:31AM 35.0500 -89.8333 90° East 116 133 3,700 900 Climbing KMEM
02:32AM 35.0333 -89.8000 121° Southeast 122 140 4,700 900 Climbing KMEM
02:33AM 35.0333 -89.7500 90° East 123 142 5,600 900 Climbing KMEM
02:34AM 35.0167 -89.7167 121° Southeast 129 148 6,500 900 Climbing KMEM
02:35AM 35.0000 -89.6667 112° Southeast 132 152 7,400 900 Climbing KMEM
02:36AM 35.0000 -89.6333 90° East 130 150 8,300 840 Climbing KMEM
02:37AM 34.9833 -89.5833 112° Southeast 129 148 9,100 360 Climbing KMEM
02:38AM 34.9833 -89.5333 90° East 162 186 9,100  Level KMEM
02:39AM 34.9667 -89.4833 112° Southeast 175 201 9,100  Level KMEM
02:40AM 34.9500 -89.4333 112° Southeast 166 191 9,100  Level KMEM
02:41AM 34.9344 -89.3539 103° East 176 203 9,100  Level Memphis Center
02:42AM 34.9214 -89.3008 107° East 176 203 9,100  Level Memphis Center
02:43AM 34.9086 -89.2506 107° East 170 196 9,100  Level Memphis Center
02:44AM 34.8956 -89.1975 107° East 161 185 9,100  Level Memphis Center
02:45AM 34.8844 -89.1444 104° East 161 185 9,100  Level Memphis Center
02:46AM 34.8714 -89.0889 106° East 166 191 9,100  Level Memphis Center
02:47AM 34.8564 -89.0361 109° East 166 191 9,100  Level Memphis Center
02:48AM 34.8453 -88.9831 104° East 166 191 9,100  Level Memphis Center
02:49AM 34.8300 -88.9278 109° East 166 191 9,100  Level Memphis Center
02:50AM 34.8211 -88.8797 103° East 166 191 9,100  Level Memphis Center
02:51AM 34.8081 -88.8269 107° East 166 191 9,100  Level Memphis Center
02:52AM 34.7947 -88.7739 107° East 166 191 9,100  Level Memphis Center
02:53AM 34.7817 -88.7211 107° East 166 191 9,100  Level Memphis Center
02:54AM 34.7661 -88.6658 109° East 166 191 9,100  Level Memphis Center
02:55AM 34.7531 -88.6131 107° East 166 191 9,100  Level Memphis Center
02:56AM 34.7419 -88.5628 105° East 166 191 9,100  Level Memphis Center
02:57AM 34.7264 -88.5050 108° East 166 191 9,100  Level Memphis Center
02:58AM 34.7133 -88.4597 109° East 161 185 9,100 -60 Level Memphis Center
03:00AM 34.6993 -88.3960 105° East  Level FlightAware Approximate
03:01AM 34.6753 -88.3014 107° East 162 186 9,000  Level Memphis Center
03:02AM 34.6639 -88.2461 104° East 162 186 9,000  Level Memphis Center
03:03AM 34.6506 -88.1936 107° East 162 186 9,000  Level Memphis Center
03:04AM 34.6369 -88.1408 107° East 162 186 9,000  Level Memphis Center
03:05AM 34.6214 -88.0858 109° East 162 186 9,000  Level Memphis Center
03:06AM 34.6100 -88.0331 105° East 162 186 9,000  Level Memphis Center
03:07AM 34.6114 -88.0148 107° East  Level FlightAware Approximate
03:07AM 34.5944 -87.9806 110° East 167 192 9,000  Level Memphis Center
03:08AM 34.5808 -87.9253 107° East 167 192 9,000  Level Memphis Center
03:09AM 34.5692 -87.8728 105° East 162 186 9,000  Level Memphis Center
03:10AM 34.5558 -87.8203 107° East 162 186 9,000  Level Memphis Center
03:11AM 34.5422 -87.7678 107° East 162 186 9,000  Level Memphis Center
03:12AM 34.5283 -87.7125 107° East 162 186 9,000  Level Memphis Center
03:13AM 34.5147 -87.6575 107° East 162 186 9,000  Level Memphis Center
03:14AM 34.5011 -87.6050 107° East 162 186 9,000  Level Memphis Center
03:15AM 34.4894 -87.5525 105° East 162 186 9,000  Level Memphis Center
03:16AM 34.4756 -87.4975 107° East 162 186 9,000  Level Memphis Center
03:17AM 34.4597 -87.4378 108° East 162 186 9,000  Level Memphis Center
03:18AM 34.4458 -87.3828 107° East 162 186 9,000  Level Memphis Center
03:19AM 34.4319 -87.3303 108° East 162 186 9,000  Level Memphis Center
03:20AM 34.4183 -87.2756 107° East 162 186 9,000  Level Memphis Center
03:21AM 34.4042 -87.2206 107° East 162 186 9,000  Level Memphis Center
03:22AM 34.3883 -87.1683 110° East 162 186 9,000  Level Memphis Center
03:23AM 34.3744 -87.1136 107° East 162 186 9,000  Level Memphis Center
03:24AM 34.3583 -87.0614 110° East 162 186 9,000  Level Memphis Center
03:25AM 34.3444 -87.0089 108° East 162 186 9,000  Level Memphis Center
03:26AM 34.3306 -86.9567 108° East 162 186 9,000  Level Memphis Center
03:28AM 34.3047 -86.8578 108° East 170 196 9,000  Level Atlanta Center
03:29AM 34.2911 -86.8044 107° East 170 196 9,000  Level Atlanta Center
03:30AM 34.2778 -86.7514 107° East 170 196 9,000  Level Atlanta Center
03:31AM 34.2622 -86.6981 109° East 170 196 9,000  Level Atlanta Center
03:32AM 34.2489 -86.6447 107° East 170 196 9,000  Level Atlanta Center
03:33AM 34.2353 -86.5892 106° East 170 196 9,000  Level Atlanta Center
03:34AM 34.2197 -86.5333 109° East 170 196 9,000  Level Atlanta Center
03:35AM 34.2042 -86.4803 110° East 170 196 9,000  Level Atlanta Center
03:36AM 34.1928 -86.4244 104° East 170 196 9,000  Level Atlanta Center
03:37AM 34.1772 -86.3689 109° East 170 196 9,000  Level Atlanta Center
03:38AM 34.1656 -86.3158 105° East 170 196 9,000  Level Atlanta Center
03:39AM 34.1500 -86.2603 109° East 170 196 9,000  Level Atlanta Center
03:40AM 34.1383 -86.2047 104° East 170 196 9,000  Level Atlanta Center
03:41AM 34.1206 -86.1517 112° Southeast 170 196 9,000  Level Atlanta Center
03:42AM 34.1069 -86.0986 107° East 170 196 9,000  Level Atlanta Center
03:43AM 34.0911 -86.0431 109° East 170 196 9,000  Level Atlanta Center
03:44AM 34.0772 -85.9875 107° East 170 196 9,000  Level Atlanta Center
03:45AM 34.0572 -85.9369 116° Southeast 170 196 9,000  Level Atlanta Center
03:46AM 34.0456 -85.8814 104° East 170 196 9,000  Level Atlanta Center
03:47AM 34.0339 -85.8286 105° East 170 196 9,000  Level Atlanta Center
03:48AM 34.0181 -85.7706 108° East 164 189 9,100  Climbing Atlanta Center
03:49AM 34.0042 -85.7178 108° East 164 189 9,100  Level Atlanta Center
03:50AM 33.9881 -85.6647 110° East 169 194 9,100  Level Atlanta Center
03:51AM 33.9764 -85.6094 104° East 174 200 9,100  Level Atlanta Center
03:52AM 33.9581 -85.5564 113° Southeast 169 194 9,100  Level Atlanta Center
03:53AM 33.9442 -85.5011 107° East 169 194 9,100  Level Atlanta Center
03:54AM 33.9303 -85.4558 110° East 169 194 9,100  Level Atlanta Center
03:55AM 33.9161 -85.4006 107° East 169 194 9,100  Level Atlanta Center
03:56AM 33.9022 -85.3478 108° East 169 194 9,100  Level Atlanta Center
03:57AM 33.8881 -85.2950 108° East 169 194 9,100  Level Atlanta Center
03:58AM 33.8719 -85.2397 109° East 169 194 9,100  Level Atlanta Center
03:59AM 33.8536 -85.1869 113° Southeast 169 194 9,100 -60 Level Atlanta Center
04:00AM 33.8375 -85.1317 109° East 169 194 9,000 -60 Descending Atlanta Center
04:01AM 33.8211 -85.0714 108° East 174 200 9,000  Level Atlanta Center
04:02AM 33.8050 -85.0164 109° East 174 200 9,000 -240 Level Atlanta Center
04:03AM 33.7931 -84.9586 104° East 174 200 8,600 -600 Descending Atlanta Center
04:05AM 33.7667 -84.8333 104° East 186 214 7,300 -660 Descending Atlanta TRACON
04:06AM 33.7667 -84.7667 90° East 190 219 6,600 -660 Descending Atlanta TRACON
04:07AM 33.7667 -84.7000 90° East 196 226 6,000 -660 Descending Atlanta TRACON
04:08AM 33.7500 -84.6500 112° Southeast 189 217 5,400 -540 Descending Atlanta TRACON
04:09AM 33.7500 -84.5833 90° East 186 214 5,000 -420 Descending Atlanta TRACON
04:10AM 33.7500 -84.5167 90° East 184 212 4,600 -540 Descending Atlanta TRACON
04:11AM 33.7500 -84.4667 90° East 187 215 4,000 -660 Descending Atlanta TRACON
04:12AM 33.7333 -84.4000 107° East 194 223 3,300 -600 Descending Atlanta TRACON
04:13AM 33.7000 -84.3667 140° Southeast 184 212 2,900 -720 Descending Atlanta TRACON
04:14AM 33.6500 -84.3667 180° South 191 220 1,900 -1,020 Descending Atlanta TRACON
04:16AM 33.6333 -84.4167 90° East  Level FlightAware Approximate
04:23AM 33.6367 -84.4279 90° East  Level Estimated
04:24AM 33.6367 -84.4279 90° East  Level Estimated
04:25AM 33.6367 -84.4279 90° East  Level Estimated